sensor_id;sensor_type;location;lat;lon;timestamp;pressure;altitude;pressure_sealevel;temperature;humidity
20630;BME280;17386;43.846;25.950;2023-05-24T00:00:04;100938.53;;;19.56;100.00
20630;BME280;17386;43.846;25.950;2023-05-24T00:02:38;100948.34;;;19.57;100.00
20630;BME280;17386;43.846;25.950;2023-05-24T00:05:08;100932.59;;;19.51;100.00
20630;BME280;17386;43.846;25.950;2023-05-24T00:07:37;100940.66;;;19.38;100.00
20630;BME280;17386;43.846;25.950;2023-05-24T00:10:05;100941.09;;;19.32;100.00
20630;BME280;17386;43.846;25.950;2023-05-24T00:12:32;100936.78;;;19.29;100.00
20630;BME280;17386;43.846;25.950;2023-05-24T00:14:59;100930.28;;;19.19;100.00
20630;BME280;17386;43.846;25.950;2023-05-24T00:17:26;100934.94;;;19.17;100.00
20630;BME280;17386;43.846;25.950;2023-05-24T00:19:55;100935.22;;;19.12;100.00
20630;BME280;17386;43.846;25.950;2023-05-24T00:22:22;100932.66;;;19.11;100.00
20630;BME280;17386;43.846;25.950;2023-05-24T00:24:48;100931.78;;;19.10;100.00
20630;BME280;17386;43.846;25.950;2023-05-24T00:27:15;100923.59;;;19.12;100.00
20630;BME280;17386;43.846;25.950;2023-05-24T00:29:42;100921.00;;;19.10;100.00
20630;BME280;17386;43.846;25.950;2023-05-24T00:32:08;100925.31;;;19.13;100.00
20630;BME280;17386;43.846;25.950;2023-05-24T00:34:35;100922.75;;;19.11;100.00
20630;BME280;17386;43.846;25.950;2023-05-24T00:37:02;100917.75;;;19.05;100.00
20630;BME280;17386;43.846;25.950;2023-05-24T00:39:28;100916.34;;;19.00;100.00
20630;BME280;17386;43.846;25.950;2023-05-24T00:41:55;100929.06;;;18.98;100.00
20630;BME280;17386;43.846;25.950;2023-05-24T00:44:22;100926.16;;;18.88;100.00
20630;BME280;17386;43.846;25.950;2023-05-24T00:46:48;100930.41;;;18.78;100.00
20630;BME280;17386;43.846;25.950;2023-05-24T00:49:15;100922.84;;;18.70;100.00
20630;BME280;17386;43.846;25.950;2023-05-24T00:51:42;100924.59;;;18.57;100.00
20630;BME280;17386;43.846;25.950;2023-05-24T00:54:09;100933.06;;;18.51;100.00
20630;BME280;17386;43.846;25.950;2023-05-24T00:56:36;100937.22;;;18.42;100.00
20630;BME280;17386;43.846;25.950;2023-05-24T00:59:02;100935.69;;;18.38;100.00
20630;BME280;17386;43.846;25.950;2023-05-24T01:01:29;100938.59;;;18.35;100.00
20630;BME280;17386;43.846;25.950;2023-05-24T01:03:56;100927.81;;;18.35;100.00
20630;BME280;17386;43.846;25.950;2023-05-24T01:06:25;100926.84;;;18.36;100.00
20630;BME280;17386;43.846;25.950;2023-05-24T01:09:28;100937.50;;;18.38;100.00
20630;BME280;17386;43.846;25.950;2023-05-24T01:20:16;100947.25;;;18.26;100.00
20630;BME280;17386;43.846;25.950;2023-05-24T01:28:46;100951.59;;;17.86;100.00
20630;BME280;17386;43.846;25.950;2023-05-24T01:31:15;100959.84;;;17.83;100.00
20630;BME280;17386;43.846;25.950;2023-05-24T01:33:43;100957.94;;;17.85;100.00
20630;BME280;17386;43.846;25.950;2023-05-24T01:36:10;100949.88;;;17.85;100.00
20630;BME280;17386;43.846;25.950;2023-05-24T01:38:38;100959.66;;;17.86;100.00
20630;BME280;17386;43.846;25.950;2023-05-24T01:41:18;100950.94;;;17.82;100.00
20630;BME280;17386;43.846;25.950;2023-05-24T01:43:55;100956.28;;;17.82;100.00
20630;BME280;17386;43.846;25.950;2023-05-24T01:46:34;100954.56;;;17.81;100.00
20630;BME280;17386;43.846;25.950;2023-05-24T01:49:17;100962.75;;;17.80;100.00
20630;BME280;17386;43.846;25.950;2023-05-24T01:52:14;100950.44;;;17.75;100.00
20630;BME280;17386;43.846;25.950;2023-05-24T01:54:46;100961.53;;;17.69;100.00
20630;BME280;17386;43.846;25.950;2023-05-24T01:57:19;100965.38;;;17.65;100.00
20630;BME280;17386;43.846;25.950;2023-05-24T01:59:49;100962.31;;;17.57;100.00
20630;BME280;17386;43.846;25.950;2023-05-24T02:02:16;100968.06;;;17.51;100.00
20630;BME280;17386;43.846;25.950;2023-05-24T02:04:43;100972.84;;;17.46;100.00
20630;BME280;17386;43.846;25.950;2023-05-24T02:07:10;100963.41;;;17.39;100.00
20630;BME280;17386;43.846;25.950;2023-05-24T02:09:35;100970.31;;;17.43;100.00
20630;BME280;17386;43.846;25.950;2023-05-24T02:12:02;100968.78;;;17.39;100.00
20630;BME280;17386;43.846;25.950;2023-05-24T02:14:30;100966.38;;;17.34;100.00
20630;BME280;17386;43.846;25.950;2023-05-24T02:16:57;100969.34;;;17.30;100.00
20630;BME280;17386;43.846;25.950;2023-05-24T02:19:24;100971.25;;;17.28;100.00
20630;BME280;17386;43.846;25.950;2023-05-24T02:21:51;100966.19;;;17.23;100.00
20630;BME280;17386;43.846;25.950;2023-05-24T02:24:18;100971.81;;;17.18;100.00
20630;BME280;17386;43.846;25.950;2023-05-24T02:26:45;100971.22;;;17.13;100.00
20630;BME280;17386;43.846;25.950;2023-05-24T02:29:13;100969.75;;;17.08;100.00
20630;BME280;17386;43.846;25.950;2023-05-24T02:31:39;100967.50;;;17.00;100.00
20630;BME280;17386;43.846;25.950;2023-05-24T02:34:06;100964.31;;;16.93;100.00
20630;BME280;17386;43.846;25.950;2023-05-24T02:36:32;100966.06;;;16.94;100.00
20630;BME280;17386;43.846;25.950;2023-05-24T02:39:02;100965.78;;;16.99;100.00
20630;BME280;17386;43.846;25.950;2023-05-24T02:41:29;100970.28;;;16.99;100.00
20630;BME280;17386;43.846;25.950;2023-05-24T02:43:56;100973.34;;;16.92;100.00
20630;BME280;17386;43.846;25.950;2023-05-24T02:46:22;100964.69;;;16.87;100.00
20630;BME280;17386;43.846;25.950;2023-05-24T02:48:49;100965.53;;;16.88;100.00
20630;BME280;17386;43.846;25.950;2023-05-24T02:51:16;100962.88;;;16.88;100.00
20630;BME280;17386;43.846;25.950;2023-05-24T02:53:41;100958.38;;;16.88;100.00
20630;BME280;17386;43.846;25.950;2023-05-24T02:56:09;100969.78;;;16.92;100.00
20630;BME280;17386;43.846;25.950;2023-05-24T02:58:36;100967.97;;;16.92;100.00
20630;BME280;17386;43.846;25.950;2023-05-24T03:01:06;100964.41;;;16.92;100.00
20630;BME280;17386;43.846;25.950;2023-05-24T03:03:34;100966.75;;;16.98;100.00
20630;BME280;17386;43.846;25.950;2023-05-24T03:06:00;100966.41;;;17.04;100.00
20630;BME280;17386;43.846;25.950;2023-05-24T03:08:27;100976.88;;;17.09;100.00
20630;BME280;17386;43.846;25.950;2023-05-24T03:10:54;100976.66;;;17.12;100.00
20630;BME280;17386;43.846;25.950;2023-05-24T03:13:21;100979.16;;;17.15;100.00
20630;BME280;17386;43.846;25.950;2023-05-24T03:15:48;100987.41;;;17.12;100.00
20630;BME280;17386;43.846;25.950;2023-05-24T03:18:15;100982.13;;;17.10;100.00
20630;BME280;17386;43.846;25.950;2023-05-24T03:20:41;100980.22;;;17.12;100.00
20630;BME280;17386;43.846;25.950;2023-05-24T03:23:08;100977.28;;;17.17;100.00
20630;BME280;17386;43.846;25.950;2023-05-24T03:25:35;100979.66;;;17.21;100.00
20630;BME280;17386;43.846;25.950;2023-05-24T03:28:01;100981.22;;;17.26;100.00
20630;BME280;17386;43.846;25.950;2023-05-24T03:30:28;100964.41;;;17.22;100.00
20630;BME280;17386;43.846;25.950;2023-05-24T03:32:55;100973.47;;;17.35;100.00
20630;BME280;17386;43.846;25.950;2023-05-24T03:35:21;100978.66;;;17.38;100.00
20630;BME280;17386;43.846;25.950;2023-05-24T03:37:48;100983.19;;;17.38;100.00
20630;BME280;17386;43.846;25.950;2023-05-24T03:40:15;100977.13;;;17.34;100.00
20630;BME280;17386;43.846;25.950;2023-05-24T03:42:41;100978.06;;;17.33;100.00
20630;BME280;17386;43.846;25.950;2023-05-24T03:45:09;100981.63;;;17.34;100.00
20630;BME280;17386;43.846;25.950;2023-05-24T03:47:35;100984.56;;;17.29;100.00
20630;BME280;17386;43.846;25.950;2023-05-24T03:50:02;100985.53;;;17.28;100.00
20630;BME280;17386;43.846;25.950;2023-05-24T03:52:29;100984.00;;;17.24;100.00
20630;BME280;17386;43.846;25.950;2023-05-24T03:54:55;100992.31;;;17.19;100.00
20630;BME280;17386;43.846;25.950;2023-05-24T03:57:22;100995.56;;;17.10;100.00
20630;BME280;17386;43.846;25.950;2023-05-24T03:59:48;100991.88;;;16.97;100.00
20630;BME280;17386;43.846;25.950;2023-05-24T04:02:15;100991.00;;;16.97;100.00
20630;BME280;17386;43.846;25.950;2023-05-24T04:04:42;100993.75;;;17.11;100.00
20630;BME280;17386;43.846;25.950;2023-05-24T04:07:08;101002.09;;;17.20;100.00
20630;BME280;17386;43.846;25.950;2023-05-24T04:09:37;101002.50;;;17.29;100.00
20630;BME280;17386;43.846;25.950;2023-05-24T04:12:03;101001.56;;;17.30;100.00
20630;BME280;17386;43.846;25.950;2023-05-24T04:14:29;101015.22;;;17.41;100.00
20630;BME280;17386;43.846;25.950;2023-05-24T04:16:56;101008.59;;;17.46;100.00
20630;BME280;17386;43.846;25.950;2023-05-24T04:19:24;101008.25;;;17.53;100.00
20630;BME280;17386;43.846;25.950;2023-05-24T04:21:52;101012.38;;;17.58;100.00
20630;BME280;17386;43.846;25.950;2023-05-24T04:24:19;101012.19;;;17.61;100.00
20630;BME280;17386;43.846;25.950;2023-05-24T04:26:44;101010.72;;;17.71;100.00
20630;BME280;17386;43.846;25.950;2023-05-24T04:29:13;101019.94;;;17.82;100.00
20630;BME280;17386;43.846;25.950;2023-05-24T04:31:40;101012.63;;;17.84;100.00
20630;BME280;17386;43.846;25.950;2023-05-24T04:34:10;101014.47;;;17.83;100.00
20630;BME280;17386;43.846;25.950;2023-05-24T04:36:39;101014.78;;;17.93;100.00
20630;BME280;17386;43.846;25.950;2023-05-24T04:39:06;100997.00;;;17.90;100.00
20630;BME280;17386;43.846;25.950;2023-05-24T04:41:33;101018.22;;;18.09;100.00
20630;BME280;17386;43.846;25.950;2023-05-24T04:44:00;101025.03;;;18.15;100.00
20630;BME280;17386;43.846;25.950;2023-05-24T04:46:27;101017.75;;;18.17;100.00
20630;BME280;17386;43.846;25.950;2023-05-24T04:48:54;101019.94;;;18.10;100.00
20630;BME280;17386;43.846;25.950;2023-05-24T04:51:21;101021.78;;;18.10;100.00
20630;BME280;17386;43.846;25.950;2023-05-24T04:53:48;101021.28;;;18.03;100.00
20630;BME280;17386;43.846;25.950;2023-05-24T04:56:15;101027.81;;;17.85;100.00
20630;BME280;17386;43.846;25.950;2023-05-24T04:58:42;101036.44;;;17.75;100.00
20630;BME280;17386;43.846;25.950;2023-05-24T05:01:09;101027.03;;;17.83;100.00
20630;BME280;17386;43.846;25.950;2023-05-24T05:03:34;101029.06;;;17.93;100.00
20630;BME280;17386;43.846;25.950;2023-05-24T05:06:00;101032.53;;;18.10;100.00
20630;BME280;17386;43.846;25.950;2023-05-24T05:08:27;101042.41;;;18.23;100.00
20630;BME280;17386;43.846;25.950;2023-05-24T05:10:53;101033.22;;;18.27;100.00
20630;BME280;17386;43.846;25.950;2023-05-24T05:13:19;101035.31;;;18.37;100.00
20630;BME280;17386;43.846;25.950;2023-05-24T05:15:45;101044.13;;;18.39;100.00
20630;BME280;17386;43.846;25.950;2023-05-24T05:18:11;101035.03;;;18.41;100.00
20630;BME280;17386;43.846;25.950;2023-05-24T05:20:37;101047.09;;;18.63;100.00
20630;BME280;17386;43.846;25.950;2023-05-24T05:23:04;101042.31;;;18.68;100.00
20630;BME280;17386;43.846;25.950;2023-05-24T05:25:30;101040.88;;;18.48;100.00
20630;BME280;17386;43.846;25.950;2023-05-24T05:27:57;101048.94;;;18.62;100.00
20630;BME280;17386;43.846;25.950;2023-05-24T05:30:24;101043.16;;;18.82;100.00
20630;BME280;17386;43.846;25.950;2023-05-24T05:32:50;101041.78;;;18.90;100.00
20630;BME280;17386;43.846;25.950;2023-05-24T05:35:17;101054.38;;;18.89;100.00
20630;BME280;17386;43.846;25.950;2023-05-24T05:37:43;101063.94;;;18.80;100.00
20630;BME280;17386;43.846;25.950;2023-05-24T05:40:10;101066.38;;;18.98;100.00
20630;BME280;17386;43.846;25.950;2023-05-24T05:42:36;101063.28;;;19.04;100.00
20630;BME280;17386;43.846;25.950;2023-05-24T05:45:01;101069.88;;;19.12;100.00
20630;BME280;17386;43.846;25.950;2023-05-24T05:47:27;101065.25;;;19.14;100.00
20630;BME280;17386;43.846;25.950;2023-05-24T05:49:52;101076.63;;;19.05;100.00
20630;BME280;17386;43.846;25.950;2023-05-24T05:52:18;101076.47;;;19.21;100.00
20630;BME280;17386;43.846;25.950;2023-05-24T05:54:43;101076.22;;;19.38;99.90
20630;BME280;17386;43.846;25.950;2023-05-24T05:57:08;101060.28;;;19.35;98.92
20630;BME280;17386;43.846;25.950;2023-05-24T05:59:35;101077.09;;;19.39;99.32
20630;BME280;17386;43.846;25.950;2023-05-24T06:02:04;101078.13;;;19.24;100.00
20630;BME280;17386;43.846;25.950;2023-05-24T06:04:32;101071.88;;;19.23;100.00
20630;BME280;17386;43.846;25.950;2023-05-24T06:06:59;101084.47;;;19.50;100.00
20630;BME280;17386;43.846;25.950;2023-05-24T06:09:26;101080.00;;;19.63;99.09
20630;BME280;17386;43.846;25.950;2023-05-24T06:11:51;101083.06;;;19.84;98.20
20630;BME280;17386;43.846;25.950;2023-05-24T06:14:17;101093.53;;;20.01;97.15
20630;BME280;17386;43.846;25.950;2023-05-24T06:16:44;101085.22;;;20.17;96.84
20630;BME280;17386;43.846;25.950;2023-05-24T06:19:11;101086.19;;;20.03;97.14
20630;BME280;17386;43.846;25.950;2023-05-24T06:21:37;101090.09;;;20.12;97.26
20630;BME280;17386;43.846;25.950;2023-05-24T06:24:05;101082.63;;;20.28;96.85
20630;BME280;17386;43.846;25.950;2023-05-24T06:26:35;101086.19;;;20.41;96.39
20630;BME280;17386;43.846;25.950;2023-05-24T06:29:01;101089.53;;;20.58;95.97
20630;BME280;17386;43.846;25.950;2023-05-24T06:31:28;101089.50;;;20.70;95.10
20630;BME280;17386;43.846;25.950;2023-05-24T06:33:54;101094.03;;;20.83;94.65
20630;BME280;17386;43.846;25.950;2023-05-24T06:36:19;101087.66;;;20.84;95.19
20630;BME280;17386;43.846;25.950;2023-05-24T06:38:46;101086.69;;;20.72;95.60
20630;BME280;17386;43.846;25.950;2023-05-24T06:41:12;101083.47;;;20.80;95.75
20630;BME280;17386;43.846;25.950;2023-05-24T06:43:38;101088.78;;;20.68;96.14
20630;BME280;17386;43.846;25.950;2023-05-24T06:46:05;101088.09;;;20.77;95.73
20630;BME280;17386;43.846;25.950;2023-05-24T06:48:33;101081.69;;;20.91;94.66
20630;BME280;17386;43.846;25.950;2023-05-24T06:50:59;101089.28;;;21.10;92.36
20630;BME280;17386;43.846;25.950;2023-05-24T06:53:26;101084.28;;;21.29;90.28
20630;BME280;17386;43.846;25.950;2023-05-24T06:55:53;101084.41;;;21.28;88.37
20630;BME280;17386;43.846;25.950;2023-05-24T06:58:18;101086.28;;;21.39;88.61
20630;BME280;17386;43.846;25.950;2023-05-24T07:00:44;101098.41;;;21.57;87.71
20630;BME280;17386;43.846;25.950;2023-05-24T07:03:12;101083.59;;;21.74;86.16
20630;BME280;17386;43.846;25.950;2023-05-24T07:05:37;101090.16;;;21.82;84.79
20630;BME280;17386;43.846;25.950;2023-05-24T07:08:04;101084.28;;;22.00;83.34
20630;BME280;17386;43.846;25.950;2023-05-24T07:10:29;101086.72;;;22.03;82.12
20630;BME280;17386;43.846;25.950;2023-05-24T07:12:55;101094.03;;;22.14;82.60
20630;BME280;17386;43.846;25.950;2023-05-24T07:15:20;101089.50;;;22.14;82.57
20630;BME280;17386;43.846;25.950;2023-05-24T07:17:47;101089.63;;;22.13;82.97
20630;BME280;17386;43.846;25.950;2023-05-24T07:20:14;101087.50;;;22.16;82.78
20630;BME280;17386;43.846;25.950;2023-05-24T07:22:40;101094.81;;;22.27;81.73
20630;BME280;17386;43.846;25.950;2023-05-24T07:25:05;101081.00;;;22.30;82.40
20630;BME280;17386;43.846;25.950;2023-05-24T07:27:31;101086.47;;;22.52;81.93
20630;BME280;17386;43.846;25.950;2023-05-24T07:29:56;101090.50;;;22.69;80.81
20630;BME280;17386;43.846;25.950;2023-05-24T07:32:23;101085.56;;;22.85;79.43
20630;BME280;17386;43.846;25.950;2023-05-24T07:34:50;101089.13;;;22.97;75.47
20630;BME280;17386;43.846;25.950;2023-05-24T07:37:16;101091.34;;;23.14;74.57
20630;BME280;17386;43.846;25.950;2023-05-24T07:39:42;101084.91;;;23.27;73.07
20630;BME280;17386;43.846;25.950;2023-05-24T07:42:09;101082.97;;;23.38;71.66
20630;BME280;17386;43.846;25.950;2023-05-24T07:44:34;101095.13;;;23.55;68.59
20630;BME280;17386;43.846;25.950;2023-05-24T07:47:00;101099.28;;;23.59;66.70
20630;BME280;17386;43.846;25.950;2023-05-24T07:49:28;101100.06;;;23.61;62.93
20630;BME280;17386;43.846;25.950;2023-05-24T07:51:55;101089.66;;;23.66;65.27
20630;BME280;17386;43.846;25.950;2023-05-24T07:54:23;101092.34;;;23.78;66.60
20630;BME280;17386;43.846;25.950;2023-05-24T07:56:49;101101.34;;;23.78;63.22
20630;BME280;17386;43.846;25.950;2023-05-24T07:59:15;101097.72;;;23.89;60.88
20630;BME280;17386;43.846;25.950;2023-05-24T08:01:41;101100.34;;;24.00;60.48
20630;BME280;17386;43.846;25.950;2023-05-24T08:04:08;101095.56;;;24.13;60.35
20630;BME280;17386;43.846;25.950;2023-05-24T08:06:35;101097.69;;;24.31;57.73
20630;BME280;17386;43.846;25.950;2023-05-24T08:09:01;101102.78;;;24.45;56.89
20630;BME280;17386;43.846;25.950;2023-05-24T08:11:28;101096.72;;;24.62;56.61
20630;BME280;17386;43.846;25.950;2023-05-24T08:13:53;101099.59;;;24.70;58.97
20630;BME280;17386;43.846;25.950;2023-05-24T08:16:19;101087.63;;;24.82;58.73
20630;BME280;17386;43.846;25.950;2023-05-24T08:18:44;101083.91;;;24.83;59.88
20630;BME280;17386;43.846;25.950;2023-05-24T08:21:10;101085.97;;;25.01;59.83
20630;BME280;17386;43.846;25.950;2023-05-24T08:23:36;101096.25;;;24.97;59.22
20630;BME280;17386;43.846;25.950;2023-05-24T08:26:01;101094.63;;;25.16;58.64
20630;BME280;17386;43.846;25.950;2023-05-24T08:28:27;101093.19;;;25.21;59.27
20630;BME280;17386;43.846;25.950;2023-05-24T08:30:53;101095.31;;;25.08;61.23
20630;BME280;17386;43.846;25.950;2023-05-24T08:33:20;101100.34;;;25.13;60.87
20630;BME280;17386;43.846;25.950;2023-05-24T08:35:48;101100.66;;;25.29;59.65
20630;BME280;17386;43.846;25.950;2023-05-24T08:38:13;101098.81;;;25.49;58.77
20630;BME280;17386;43.846;25.950;2023-05-24T08:40:39;101092.94;;;25.44;57.55
20630;BME280;17386;43.846;25.950;2023-05-24T08:43:05;101094.66;;;25.64;57.50
20630;BME280;17386;43.846;25.950;2023-05-24T08:45:36;101092.94;;;25.73;55.98
20630;BME280;17386;43.846;25.950;2023-05-24T08:48:04;101090.13;;;25.74;56.53
20630;BME280;17386;43.846;25.950;2023-05-24T08:50:31;101092.22;;;25.80;55.91
20630;BME280;17386;43.846;25.950;2023-05-24T08:52:58;101091.94;;;26.03;55.70
20630;BME280;17386;43.846;25.950;2023-05-24T08:55:24;101096.09;;;25.97;53.21
20630;BME280;17386;43.846;25.950;2023-05-24T08:57:50;101090.06;;;26.03;54.03
20630;BME280;17386;43.846;25.950;2023-05-24T09:00:16;101084.88;;;26.10;54.74
20630;BME280;17386;43.846;25.950;2023-05-24T09:02:45;101091.03;;;26.22;54.74
20630;BME280;17386;43.846;25.950;2023-05-24T09:05:13;101095.59;;;26.21;55.06
20630;BME280;17386;43.846;25.950;2023-05-24T09:07:43;101098.28;;;26.40;55.15
20630;BME280;17386;43.846;25.950;2023-05-24T09:10:09;101099.72;;;26.44;54.82
20630;BME280;17386;43.846;25.950;2023-05-24T09:12:36;101089.13;;;26.41;54.66
20630;BME280;17386;43.846;25.950;2023-05-24T09:15:02;101091.16;;;26.20;54.06
20630;BME280;17386;43.846;25.950;2023-05-24T09:17:31;101099.16;;;26.31;53.63
20630;BME280;17386;43.846;25.950;2023-05-24T09:19:57;101095.13;;;26.45;53.29
20630;BME280;17386;43.846;25.950;2023-05-24T09:22:27;101094.22;;;26.64;52.61
20630;BME280;17386;43.846;25.950;2023-05-24T09:25:01;101097.19;;;26.70;50.25
20630;BME280;17386;43.846;25.950;2023-05-24T09:27:27;101093.59;;;26.70;50.07
20630;BME280;17386;43.846;25.950;2023-05-24T09:29:54;101090.16;;;26.68;49.81
20630;BME280;17386;43.846;25.950;2023-05-24T09:32:22;101084.34;;;26.81;50.30
20630;BME280;17386;43.846;25.950;2023-05-24T09:34:51;101082.56;;;26.89;49.47
20630;BME280;17386;43.846;25.950;2023-05-24T09:37:19;101081.47;;;27.10;48.42
20630;BME280;17386;43.846;25.950;2023-05-24T09:39:46;101079.59;;;27.10;48.92
20630;BME280;17386;43.846;25.950;2023-05-24T09:44:45;101079.25;;;27.59;46.79
20630;BME280;17386;43.846;25.950;2023-05-24T09:47:11;101077.16;;;27.70;43.62
20630;BME280;17386;43.846;25.950;2023-05-24T09:49:37;101072.84;;;27.86;43.34
20630;BME280;17386;43.846;25.950;2023-05-24T09:52:03;101074.06;;;28.09;43.12
20630;BME280;17386;43.846;25.950;2023-05-24T09:54:30;101073.06;;;28.36;43.51
20630;BME280;17386;43.846;25.950;2023-05-24T09:56:59;101061.94;;;28.64;42.76
20630;BME280;17386;43.846;25.950;2023-05-24T09:59:26;101059.91;;;28.74;42.94
20630;BME280;17386;43.846;25.950;2023-05-24T10:02:01;101058.97;;;28.91;42.81
20630;BME280;17386;43.846;25.950;2023-05-24T10:04:34;101058.72;;;29.43;42.27
20630;BME280;17386;43.846;25.950;2023-05-24T10:07:00;101052.75;;;30.05;40.15
20630;BME280;17386;43.846;25.950;2023-05-24T10:09:30;101045.72;;;30.74;36.94
20630;BME280;17386;43.846;25.950;2023-05-24T10:12:01;101041.22;;;31.43;35.67
20630;BME280;17386;43.846;25.950;2023-05-24T10:14:31;101038.19;;;32.13;34.71
20630;BME280;17386;43.846;25.950;2023-05-24T10:16:57;101037.41;;;32.79;33.45
20630;BME280;17386;43.846;25.950;2023-05-24T10:19:23;101042.09;;;33.36;32.39
20630;BME280;17386;43.846;25.950;2023-05-24T10:21:49;101038.53;;;33.85;31.54
20630;BME280;17386;43.846;25.950;2023-05-24T10:24:18;101036.53;;;34.28;31.31
20630;BME280;17386;43.846;25.950;2023-05-24T10:26:49;101036.56;;;34.69;30.47
20630;BME280;17386;43.846;25.950;2023-05-24T10:29:40;101029.25;;;34.96;29.33
20630;BME280;17386;43.846;25.950;2023-05-24T10:32:11;101026.97;;;35.26;29.35
20630;BME280;17386;43.846;25.950;2023-05-24T10:34:37;101034.44;;;35.32;29.70
20630;BME280;17386;43.846;25.950;2023-05-24T10:37:04;101023.66;;;35.64;29.72
20630;BME280;17386;43.846;25.950;2023-05-24T10:39:32;101017.25;;;36.10;28.87
20630;BME280;17386;43.846;25.950;2023-05-24T10:42:02;101013.34;;;36.44;27.82
20630;BME280;17386;43.846;25.950;2023-05-24T10:44:28;101013.22;;;36.12;27.79
20630;BME280;17386;43.846;25.950;2023-05-24T10:47:12;100998.88;;;36.49;27.96
20630;BME280;17386;43.846;25.950;2023-05-24T10:49:47;101000.06;;;36.73;27.27
20630;BME280;17386;43.846;25.950;2023-05-24T10:52:12;100995.78;;;36.70;27.77
20630;BME280;17386;43.846;25.950;2023-05-24T10:54:38;100997.59;;;36.96;27.44
20630;BME280;17386;43.846;25.950;2023-05-24T10:57:05;100995.72;;;36.45;27.38
20630;BME280;17386;43.846;25.950;2023-05-24T10:59:33;100991.91;;;36.26;27.92
20630;BME280;17386;43.846;25.950;2023-05-24T11:02:05;100987.78;;;36.55;27.33
20630;BME280;17386;43.846;25.950;2023-05-24T11:04:36;100985.91;;;36.36;27.20
20630;BME280;17386;43.846;25.950;2023-05-24T11:07:05;100983.59;;;36.39;27.21
20630;BME280;17386;43.846;25.950;2023-05-24T11:09:33;100977.38;;;36.37;27.34
20630;BME280;17386;43.846;25.950;2023-05-24T11:14:30;100978.34;;;35.32;28.72
20630;BME280;17386;43.846;25.950;2023-05-24T11:16:57;100983.06;;;35.51;28.44
20630;BME280;17386;43.846;25.950;2023-05-24T11:19:45;100983.59;;;34.94;28.62
20630;BME280;17386;43.846;25.950;2023-05-24T11:22:13;100979.47;;;34.70;29.57
20630;BME280;17386;43.846;25.950;2023-05-24T11:24:40;100977.03;;;34.06;30.22
20630;BME280;17386;43.846;25.950;2023-05-24T11:27:05;100974.22;;;33.71;30.66
20630;BME280;17386;43.846;25.950;2023-05-24T11:29:31;100965.41;;;32.90;31.89
20630;BME280;17386;43.846;25.950;2023-05-24T11:31:59;100970.13;;;32.60;32.67
20630;BME280;17386;43.846;25.950;2023-05-24T11:34:32;100963.88;;;32.22;33.49
20630;BME280;17386;43.846;25.950;2023-05-24T11:36:58;100966.44;;;31.79;33.76
20630;BME280;17386;43.846;25.950;2023-05-24T11:39:35;100956.28;;;30.96;34.90
20630;BME280;17386;43.846;25.950;2023-05-24T11:42:06;100958.03;;;30.58;36.15
20630;BME280;17386;43.846;25.950;2023-05-24T11:44:34;100953.00;;;30.38;36.47
20630;BME280;17386;43.846;25.950;2023-05-24T11:47:06;100954.69;;;29.84;37.60
20630;BME280;17386;43.846;25.950;2023-05-24T11:49:33;100951.09;;;29.83;36.91
20630;BME280;17386;43.846;25.950;2023-05-24T11:52:01;100941.69;;;29.78;37.57
20630;BME280;17386;43.846;25.950;2023-05-24T11:54:29;100943.59;;;29.77;37.80
20630;BME280;17386;43.846;25.950;2023-05-24T11:56:58;100942.78;;;29.52;37.95
20630;BME280;17386;43.846;25.950;2023-05-24T11:59:27;100931.63;;;29.29;39.77
20630;BME280;17386;43.846;25.950;2023-05-24T12:04:28;100929.78;;;29.13;40.96
20630;BME280;17386;43.846;25.950;2023-05-24T12:06:56;100931.84;;;29.11;41.32
20630;BME280;17386;43.846;25.950;2023-05-24T12:09:23;100946.69;;;29.09;41.21
20630;BME280;17386;43.846;25.950;2023-05-24T12:11:51;100907.91;;;29.05;40.31
20630;BME280;17386;43.846;25.950;2023-05-24T12:14:23;100921.94;;;29.10;39.38
20630;BME280;17386;43.846;25.950;2023-05-24T12:16:53;100927.41;;;29.10;39.27
20630;BME280;17386;43.846;25.950;2023-05-24T12:19:23;100920.91;;;29.11;38.76
20630;BME280;17386;43.846;25.950;2023-05-24T12:21:55;100917.13;;;28.96;38.49
20630;BME280;17386;43.846;25.950;2023-05-24T12:24:22;100908.75;;;28.98;39.09
20630;BME280;17386;43.846;25.950;2023-05-24T12:26:50;100901.69;;;28.71;39.38
20630;BME280;17386;43.846;25.950;2023-05-24T12:29:18;100900.16;;;28.76;40.16
20630;BME280;17386;43.846;25.950;2023-05-24T12:31:47;100905.09;;;28.73;40.05
20630;BME280;17386;43.846;25.950;2023-05-24T12:34:20;100897.25;;;28.70;40.56
20630;BME280;17386;43.846;25.950;2023-05-24T12:36:46;100903.03;;;28.75;40.58
20630;BME280;17386;43.846;25.950;2023-05-24T12:39:26;100897.56;;;28.75;40.70
20630;BME280;17386;43.846;25.950;2023-05-24T12:42:01;100903.41;;;28.72;41.02
20630;BME280;17386;43.846;25.950;2023-05-24T12:44:33;100898.47;;;28.83;40.92
20630;BME280;17386;43.846;25.950;2023-05-24T12:47:02;100894.91;;;28.91;40.66
20630;BME280;17386;43.846;25.950;2023-05-24T12:49:30;100893.66;;;28.85;39.40
20630;BME280;17386;43.846;25.950;2023-05-24T12:51:57;100892.81;;;28.85;39.22
20630;BME280;17386;43.846;25.950;2023-05-24T12:54:25;100896.22;;;28.87;38.06
20630;BME280;17386;43.846;25.950;2023-05-24T12:56:53;100891.97;;;28.84;36.25
20630;BME280;17386;43.846;25.950;2023-05-24T12:59:20;100893.66;;;28.77;36.16